createdAt,value
2018-02-12T00:02:19.147Z,98441.26
2018-02-12T00:04:47.289Z,98433.95
2018-02-12T00:07:15.741Z,98432.94
2018-02-12T00:09:43.351Z,98435.33
2018-02-12T00:12:11.190Z,98438.87
2018-02-12T00:14:38.750Z,98447.75
2018-02-12T00:17:06.356Z,98447.61
2018-02-12T00:19:33.951Z,98443.67
2018-02-12T00:22:01.520Z,98439.80
2018-02-12T00:24:29.098Z,98440.20
2018-02-12T00:26:56.632Z,98452.47
2018-02-12T00:29:24.304Z,98454.36
2018-02-12T00:31:51.954Z,98457.27
2018-02-12T00:34:19.484Z,98458.27
2018-02-12T00:36:47.196Z,98463.31
2018-02-12T00:39:14.788Z,98469.22
2018-02-12T00:41:42.380Z,98467.61
2018-02-12T00:44:10.039Z,98469.23
2018-02-12T00:46:37.601Z,98478.48
2018-02-12T00:49:05.164Z,98483.03
2018-02-12T00:51:32.694Z,98481.03
2018-02-12T00:54:00.240Z,98490.39
2018-02-12T00:56:27.807Z,98494.73
2018-02-12T00:58:55.391Z,98497.94
2018-02-12T01:01:22.904Z,98499.29
2018-02-12T01:03:50.444Z,98494.56
2018-02-12T01:06:17.948Z,98500.11
2018-02-12T01:08:45.492Z,98499.77
2018-02-12T01:11:13.518Z,98502.17
2018-02-12T01:13:41.245Z,98498.38
2018-02-12T01:16:08.777Z,98504.95
2018-02-12T01:18:36.335Z,98506.92
2018-02-12T01:21:04.013Z,98505.45
2018-02-12T01:23:31.535Z,98512.11
2018-02-12T01:25:59.085Z,98515.02
2018-02-12T01:28:26.621Z,98511.91
2018-02-12T01:30:54.142Z,98520.78
2018-02-12T01:33:21.681Z,98515.27
2018-02-12T01:35:49.208Z,98519.86
2018-02-12T01:38:16.711Z,98522.45
2018-02-12T01:40:44.246Z,98523.82
2018-02-12T01:43:11.755Z,98524.04
2018-02-12T01:45:39.253Z,98523.50
2018-02-12T01:48:06.793Z,98521.66
2018-02-12T01:50:34.292Z,98525.39
2018-02-12T01:53:01.859Z,98523.06
2018-02-12T01:55:29.360Z,98530.45
2018-02-12T01:57:56.907Z,98533.80
2018-02-12T02:00:24.476Z,98534.85
2018-02-12T02:02:52.035Z,98526.62
2018-02-12T02:05:19.593Z,98540.34
2018-02-12T02:07:47.101Z,98551.38
2018-02-12T02:10:14.662Z,98546.91
2018-02-12T02:12:42.194Z,98547.11
2018-02-12T02:15:09.705Z,98557.31
2018-02-12T02:17:37.208Z,98556.49
2018-02-12T02:20:05.061Z,98558.78
2018-02-12T02:22:32.582Z,98555.89
2018-02-12T02:25:00.103Z,98558.36
2018-02-12T02:27:27.646Z,98565.36
2018-02-12T02:29:55.163Z,98565.76
2018-02-12T02:32:22.713Z,98562.55
2018-02-12T02:34:50.805Z,98571.16
2018-02-12T02:37:18.338Z,98572.87
2018-02-12T02:39:45.834Z,98570.05
2018-02-12T02:42:13.384Z,98569.63
2018-02-12T02:44:40.904Z,98566.19
2018-02-12T02:47:08.561Z,98567.13
2018-02-12T02:49:36.075Z,98572.14
2018-02-12T02:52:03.611Z,98571.40
2018-02-12T02:54:31.117Z,98569.81
2018-02-12T02:56:58.656Z,98576.25
2018-02-12T02:59:26.210Z,98583.25
2018-02-12T03:01:53.704Z,98580.55
2018-02-12T03:04:21.252Z,98592.27
2018-02-12T03:06:48.931Z,98582.28
2018-02-12T03:09:16.445Z,98586.57
2018-02-12T03:11:43.968Z,98592.09
2018-02-12T03:14:11.516Z,98590.83
2018-02-12T03:16:39.016Z,98593.75
2018-02-12T03:19:06.566Z,98588.66
2018-02-12T03:21:34.106Z,98594.57
2018-02-12T03:24:01.662Z,98592.11
2018-02-12T03:26:29.170Z,98606.86
2018-02-12T03:28:56.682Z,98608.95
2018-02-12T03:31:24.217Z,98612.89
2018-02-12T03:33:51.723Z,98609.88
2018-02-12T03:36:19.325Z,98619.34
2018-02-12T03:38:47.034Z,98623.20
2018-02-12T03:41:14.594Z,98620.50
2018-02-12T03:43:42.115Z,98616.56
2018-02-12T03:46:10.512Z,98622.90
2018-02-12T03:48:38.046Z,98631.82
2018-02-12T03:51:05.560Z,98628.73
2018-02-12T03:53:33.110Z,98625.07
2018-02-12T03:56:00.623Z,98636.41
2018-02-12T03:58:28.131Z,98630.16
2018-02-12T04:00:55.674Z,98638.19
2018-02-12T04:03:23.209Z,98644.94
2018-02-12T04:05:50.740Z,98637.33
2018-02-12T04:08:18.262Z,98651.35
2018-02-12T04:10:45.754Z,98648.45
2018-02-12T04:13:13.296Z,98653.97
2018-02-12T04:15:40.857Z,98651.89
2018-02-12T04:18:08.372Z,98658.23
2018-02-12T04:20:35.880Z,98661.35
2018-02-12T04:23:03.422Z,98673.28
2018-02-12T04:25:30.936Z,98664.67
2018-02-12T04:27:58.477Z,98674.67
2018-02-12T04:30:25.977Z,98668.62
2018-02-12T04:32:53.512Z,98666.56
2018-02-12T04:35:21.031Z,98671.23
2018-02-12T04:37:48.586Z,98673.63
2018-02-12T04:40:16.103Z,98667.61
2018-02-12T04:42:43.662Z,98673.22
2018-02-12T04:45:11.183Z,98674.67
2018-02-12T04:47:38.715Z,98679.47
2018-02-12T04:50:06.254Z,98678.51
2018-02-12T04:52:33.796Z,98676.84
2018-02-12T04:55:01.335Z,98685.69
2018-02-12T04:57:28.850Z,98682.98
2018-02-12T04:59:56.393Z,98684.88
2018-02-12T05:02:23.902Z,98687.96
2018-02-12T05:04:51.531Z,98687.15
2018-02-12T05:07:19.028Z,98689.00
2018-02-12T05:09:46.548Z,98700.04
2018-02-12T05:12:14.086Z,98708.34
2018-02-12T05:14:41.611Z,98705.53
2018-02-12T05:17:09.152Z,98716.02
2018-02-12T05:19:36.692Z,98721.31
2018-02-12T05:22:04.204Z,98724.56
2018-02-12T05:24:31.702Z,98724.87
2018-02-12T05:26:59.263Z,98725.80
2018-02-12T05:29:26.807Z,98731.82
2018-02-12T05:31:54.333Z,98736.30
2018-02-12T05:34:22.056Z,98737.34
2018-02-12T05:36:49.547Z,98739.20
2018-02-12T05:39:17.066Z,98744.83
2018-02-12T05:41:44.609Z,98744.83
2018-02-12T05:44:12.135Z,98742.52
2018-02-12T05:46:39.668Z,98759.27
2018-02-12T05:49:07.194Z,98756.57
2018-02-12T05:51:34.743Z,98758.42
2018-02-12T05:54:02.253Z,98755.52
2018-02-12T05:56:29.773Z,98757.92
2018-02-12T05:58:57.307Z,98763.75
2018-02-12T06:01:24.823Z,98773.09
2018-02-12T06:03:52.311Z,98776.02
2018-02-12T06:06:19.859Z,98782.05
2018-02-12T06:08:47.380Z,98774.45
2018-02-12T06:11:14.912Z,98778.70
2018-02-12T06:13:42.403Z,98793.26
2018-02-12T06:16:09.963Z,98793.56
2018-02-12T06:18:37.459Z,98797.31
2018-02-12T06:21:04.960Z,98796.81
2018-02-12T06:23:32.491Z,98797.00
2018-02-12T06:26:00.031Z,98797.85
2018-02-12T06:28:27.589Z,98805.96
2018-02-12T06:30:55.334Z,98814.38
2018-02-12T06:33:22.813Z,98822.27
2018-02-12T06:35:50.352Z,98814.27
2018-02-12T06:38:17.844Z,98818.13
2018-02-12T06:40:45.404Z,98829.67
2018-02-12T06:43:12.937Z,98830.59
2018-02-12T06:45:40.482Z,98836.00
2018-02-12T06:48:08.022Z,98840.48
2018-02-12T06:50:35.576Z,98841.20
2018-02-12T06:53:03.112Z,98843.37
2018-02-12T06:55:30.997Z,98850.13
2018-02-12T06:57:58.601Z,98854.79
2018-02-12T07:00:26.158Z,98856.79
2018-02-12T07:02:53.707Z,98863.31
2018-02-12T07:05:21.320Z,98864.97
2018-02-12T07:07:48.855Z,98861.75
2018-02-12T07:10:16.552Z,98870.16
2018-02-12T07:12:44.073Z,98880.66
2018-02-12T07:15:11.596Z,98879.84
2018-02-12T07:17:39.111Z,98891.98
2018-02-12T07:20:06.645Z,98887.81
2018-02-12T07:22:34.176Z,98891.85
2018-02-12T07:25:01.743Z,98891.73
2018-02-12T07:27:29.306Z,98887.59
2018-02-12T07:29:56.816Z,98888.20
2018-02-12T07:32:24.327Z,98897.84
2018-02-12T07:34:51.867Z,98888.59
2018-02-12T07:37:19.382Z,98903.69
2018-02-12T07:39:46.908Z,98905.36
2018-02-12T07:42:14.440Z,98903.49
2018-02-12T07:44:41.980Z,98905.78
2018-02-12T07:47:09.522Z,98911.72
2018-02-12T07:49:37.236Z,98912.97
2018-02-12T07:52:04.873Z,98918.64
2018-02-12T07:54:32.417Z,98922.06
2018-02-12T07:56:59.943Z,98926.45
2018-02-12T07:59:27.742Z,98923.57
2018-02-12T08:01:55.290Z,98929.38
2018-02-12T08:04:22.883Z,98932.41
2018-02-12T08:06:50.658Z,98935.47
2018-02-12T08:09:18.167Z,98938.92
2018-02-12T08:11:45.764Z,98932.37
2018-02-12T08:14:13.321Z,98938.28
2018-02-12T08:16:41.253Z,98940.38
2018-02-12T08:19:08.913Z,98943.59
2018-02-12T08:23:57.289Z,98954.62
2018-02-12T08:26:26.174Z,98959.21
2018-02-12T08:28:54.810Z,98960.45
2018-02-12T08:31:23.533Z,98962.54
2018-02-12T08:33:51.618Z,98967.64
2018-02-12T08:36:19.830Z,98964.70
2018-02-12T08:38:47.855Z,98968.65
2018-02-12T08:41:15.807Z,98970.34
2018-02-12T08:43:43.485Z,98981.17
2018-02-12T08:46:11.431Z,98987.72
2018-02-12T08:48:38.947Z,98991.39
2018-02-12T08:51:06.549Z,98990.42
2018-02-12T08:53:34.137Z,99003.54
2018-02-12T08:56:02.618Z,99008.05
2018-02-12T08:58:30.786Z,99010.95
2018-02-12T09:00:59.062Z,99013.58
2018-02-12T09:03:27.077Z,99013.78
2018-02-12T09:05:55.188Z,99019.08
2018-02-12T09:08:23.054Z,99022.83
2018-02-12T09:10:51.708Z,99028.05
2018-02-12T09:13:19.576Z,99032.11
2018-02-12T09:15:47.747Z,99029.30
2018-02-12T09:18:16.189Z,99036.06
2018-02-12T09:20:44.828Z,99038.77
2018-02-12T09:23:13.148Z,99047.08
2018-02-12T09:25:41.817Z,99056.86
2018-02-12T09:28:10.013Z,99047.45
2018-02-12T09:30:37.785Z,99050.47
2018-02-12T09:33:05.691Z,99044.22
2018-02-12T09:35:33.819Z,99052.84
2018-02-12T09:38:02.343Z,99050.56
2018-02-12T09:40:30.176Z,99064.44
2018-02-12T09:42:58.171Z,99066.72
2018-02-12T09:45:26.943Z,99073.50
2018-02-12T09:47:55.162Z,99071.53
2018-02-12T09:50:23.594Z,99082.05
2018-02-12T09:52:51.695Z,99084.58
2018-02-12T09:55:19.701Z,99088.64
2018-02-12T09:57:47.501Z,99085.63
2018-02-12T10:00:15.513Z,99092.48
2018-02-12T10:02:43.531Z,99097.50
2018-02-12T10:05:11.090Z,99100.84
2018-02-12T10:07:38.656Z,99107.30
2018-02-12T10:10:06.600Z,99106.80
2018-02-12T10:12:34.444Z,99111.06
2018-02-12T10:15:02.370Z,99111.99
2018-02-12T10:17:30.261Z,99116.67
2018-02-12T10:19:58.950Z,99121.78
2018-02-12T10:22:26.964Z,99129.30
2018-02-12T10:24:55.082Z,99126.81
2018-02-12T10:27:24.037Z,99135.88
2018-02-12T10:29:51.997Z,99140.25
2018-02-12T10:32:20.758Z,99139.28
2018-02-12T10:34:49.188Z,99136.45
2018-02-12T10:37:17.721Z,99139.78
2018-02-12T10:39:46.246Z,99141.89
